GAF578 EDDH-ETAR
Flight info
| Callsign | GAF578 |
|---|---|
| Flight time | 0h 55m |
| Altitude | 36998 |
| Route | IDEKO8C IDEKO N850 PIROT/N0460F370 N850 OHMAR/N0460F360 DCT GISEM DCT NEGIX DCT RUDUS/N0447F230 T911 XIDOD |
| Aircraft | A400/H-SDE3FGHIRWY/L4T |
Departure
| Time | 2026-05-08 19:49 |
|---|---|
| Airport | Hamburg Helmut Schmidt Airport (EDDH) |
Arrival
| Time | 2026-05-08 20:45 |
|---|---|
| Airport | Ramstein Air Base (ETAR) |
| Time | Latitude | Longitude | Altitude | Speed | Heading |
|---|---|---|---|---|---|
| 2026-05-08 18:59 | 53.63322 | 10.00019 | 53 ft | 0 kts | 138° |
| 2026-05-08 19:27 | 53.63333 | 10.00002 | 31 ft | 4 kts | 140° |
| 2026-05-08 19:27 | 53.63355 | 9.99978 | 53 ft | 4 kts | 163° |
| 2026-05-08 19:28 | 53.63380 | 9.99976 | 47 ft | 4 kts | 207° |
| 2026-05-08 19:28 | 53.63389 | 9.99986 | 47 ft | 0 kts | 229° |
| 2026-05-08 19:30 | 53.63388 | 9.99984 | 47 ft | 2 kts | 229° |
| 2026-05-08 19:30 | 53.63365 | 9.99938 | 49 ft | 6 kts | 232° |
| 2026-05-08 19:31 | 53.63323 | 9.99849 | 54 ft | 13 kts | 231° |
| 2026-05-08 19:31 | 53.63259 | 9.99758 | 53 ft | 12 kts | 195° |
| 2026-05-08 19:31 | 53.63186 | 9.99791 | 54 ft | 11 kts | 150° |
| 2026-05-08 19:31 | 53.63110 | 9.99859 | 54 ft | 13 kts | 152° |
| 2026-05-08 19:32 | 53.63023 | 9.99935 | 55 ft | 15 kts | 152° |
| 2026-05-08 19:32 | 53.62928 | 10.00016 | 55 ft | 16 kts | 155° |
| 2026-05-08 19:32 | 53.62825 | 10.00087 | 55 ft | 16 kts | 154° |
| 2026-05-08 19:32 | 53.62746 | 10.00156 | 55 ft | 1 kts | 153° |
| 2026-05-08 19:33 | 53.62742 | 10.00160 | 56 ft | 1 kts | 147° |
| 2026-05-08 19:33 | 53.62736 | 10.00173 | 50 ft | 2 kts | 131° |
| 2026-05-08 19:33 | 53.62738 | 10.00186 | 53 ft | 1 kts | 69° |
| 2026-05-08 19:33 | 53.62750 | 10.00183 | 55 ft | 1 kts | 336° |
| 2026-05-08 19:34 | 53.62765 | 10.00157 | 56 ft | 5 kts | 316° |
| 2026-05-08 19:34 | 53.62804 | 10.00108 | 56 ft | 8 kts | 328° |
| 2026-05-08 19:34 | 53.62832 | 10.00041 | 56 ft | 7 kts | 281° |
| 2026-05-08 19:34 | 53.62820 | 9.99984 | 51 ft | 3 kts | 227° |
| 2026-05-08 19:35 | 53.62819 | 9.99983 | 51 ft | 0 kts | 224° |
| 2026-05-08 19:40 | 53.62818 | 9.99980 | 56 ft | 2 kts | 222° |
| 2026-05-08 19:40 | 53.62771 | 9.99931 | 54 ft | 19 kts | 209° |
| 2026-05-08 19:40 | 53.62650 | 9.99794 | 51 ft | 21 kts | 237° |
| 2026-05-08 19:41 | 53.62616 | 9.99545 | 55 ft | 23 kts | 260° |
| 2026-05-08 19:41 | 53.62585 | 9.99280 | 54 ft | 23 kts | 259° |
| 2026-05-08 19:41 | 53.62554 | 9.99005 | 53 ft | 24 kts | 259° |
| 2026-05-08 19:41 | 53.62522 | 9.98723 | 52 ft | 25 kts | 259° |
| 2026-05-08 19:42 | 53.62488 | 9.98432 | 52 ft | 26 kts | 259° |
| 2026-05-08 19:42 | 53.62441 | 9.98143 | 51 ft | 26 kts | 244° |
| 2026-05-08 19:42 | 53.62337 | 9.97901 | 50 ft | 26 kts | 230° |
| 2026-05-08 19:42 | 53.62223 | 9.97671 | 50 ft | 26 kts | 230° |
| 2026-05-08 19:43 | 53.62108 | 9.97438 | 49 ft | 26 kts | 230° |
| 2026-05-08 19:43 | 53.61991 | 9.97203 | 49 ft | 26 kts | 230° |
| 2026-05-08 19:43 | 53.61873 | 9.96965 | 48 ft | 27 kts | 230° |
| 2026-05-08 19:43 | 53.61757 | 9.96728 | 48 ft | 27 kts | 230° |
| 2026-05-08 19:44 | 53.61670 | 9.96510 | 47 ft | 18 kts | 262° |
| 2026-05-08 19:44 | 53.61717 | 9.96421 | 48 ft | 0 kts | 353° |
| 2026-05-08 19:45 | 53.61730 | 9.96419 | 48 ft | 3 kts | 358° |
| 2026-05-08 19:45 | 53.61757 | 9.96421 | 48 ft | 5 kts | 4° |
| 2026-05-08 19:45 | 53.61831 | 9.96435 | 49 ft | 12 kts | 14° |
| 2026-05-08 19:46 | 53.61893 | 9.96511 | 49 ft | 10 kts | 50° |
| 2026-05-08 19:46 | 53.61897 | 9.96519 | 49 ft | 0 kts | 49° |
| 2026-05-08 19:49 | 53.61973 | 9.96671 | 48 ft | 62 kts | 50° |
| 2026-05-08 19:49 | 53.62478 | 9.97697 | 91 ft | 157 kts | 51° |
| 2026-05-08 19:49 | 53.63224 | 9.99212 | 848 ft | 171 kts | 51° |
| 2026-05-08 19:50 | 53.64013 | 10.00802 | 1794 ft | 190 kts | 53° |
| 2026-05-08 19:50 | 53.64901 | 10.02609 | 2668 ft | 207 kts | 52° |
| 2026-05-08 19:50 | 53.65830 | 10.04502 | 3736 ft | 216 kts | 53° |
| 2026-05-08 19:50 | 53.66795 | 10.06467 | 4542 ft | 218 kts | 53° |
| 2026-05-08 19:51 | 53.67796 | 10.08413 | 4947 ft | 222 kts | 46° |
| 2026-05-08 19:51 | 53.69100 | 10.09808 | 5019 ft | 225 kts | 20° |
| 2026-05-08 19:51 | 53.70660 | 10.09899 | 5057 ft | 228 kts | 346° |
| 2026-05-08 19:51 | 53.72085 | 10.08482 | 5193 ft | 254 kts | 313° |
| 2026-05-08 19:52 | 53.73086 | 10.05945 | 5198 ft | 270 kts | 298° |
| 2026-05-08 19:52 | 53.73932 | 10.03085 | 5213 ft | 274 kts | 295° |
| 2026-05-08 19:52 | 53.74657 | 10.00091 | 5230 ft | 277 kts | 285° |
| 2026-05-08 19:52 | 53.74836 | 9.96777 | 5720 ft | 293 kts | 263° |
| 2026-05-08 19:53 | 53.74307 | 9.93473 | 6898 ft | 288 kts | 249° |
| 2026-05-08 19:53 | 53.73554 | 9.90378 | 8231 ft | 283 kts | 246° |
| 2026-05-08 19:53 | 53.72767 | 9.87311 | 9324 ft | 287 kts | 246° |
| 2026-05-08 19:53 | 53.71963 | 9.84190 | 9970 ft | 291 kts | 246° |
| 2026-05-08 19:54 | 53.71156 | 9.81040 | 10186 ft | 293 kts | 246° |
| 2026-05-08 19:54 | 53.70345 | 9.77867 | 10208 ft | 295 kts | 246° |
| 2026-05-08 19:54 | 53.69505 | 9.74575 | 10201 ft | 311 kts | 246° |
| 2026-05-08 19:54 | 53.68665 | 9.71279 | 10206 ft | 300 kts | 246° |
| 2026-05-08 19:55 | 53.67820 | 9.68006 | 10204 ft | 312 kts | 245° |
| 2026-05-08 19:55 | 53.66788 | 9.64838 | 10205 ft | 306 kts | 236° |
| 2026-05-08 19:55 | 53.65472 | 9.62082 | 10203 ft | 303 kts | 225° |
| 2026-05-08 19:55 | 53.63825 | 9.59742 | 10197 ft | 310 kts | 214° |
| 2026-05-08 19:56 | 53.61964 | 9.58031 | 10252 ft | 304 kts | 202° |
| 2026-05-08 19:56 | 53.59889 | 9.56953 | 10619 ft | 321 kts | 191° |
| 2026-05-08 19:56 | 53.57666 | 9.56383 | 11459 ft | 325 kts | 187° |
| 2026-05-08 19:56 | 53.55405 | 9.55939 | 12370 ft | 328 kts | 187° |
| 2026-05-08 19:57 | 53.53115 | 9.55507 | 13265 ft | 333 kts | 187° |
| 2026-05-08 19:57 | 53.50805 | 9.55066 | 14132 ft | 337 kts | 187° |
| 2026-05-08 19:57 | 53.48451 | 9.54610 | 14926 ft | 342 kts | 187° |
| 2026-05-08 19:57 | 53.46076 | 9.54147 | 15722 ft | 346 kts | 188° |
| 2026-05-08 19:58 | 53.43669 | 9.53676 | 16525 ft | 350 kts | 188° |
| 2026-05-08 19:58 | 53.41233 | 9.53199 | 17346 ft | 354 kts | 188° |
| 2026-05-08 19:58 | 53.38770 | 9.52715 | 18173 ft | 359 kts | 188° |
| 2026-05-08 19:58 | 53.36305 | 9.52232 | 18917 ft | 363 kts | 188° |
| 2026-05-08 19:59 | 53.33786 | 9.51739 | 19606 ft | 365 kts | 188° |
| 2026-05-08 19:59 | 53.31241 | 9.51241 | 20035 ft | 370 kts | 189° |
| 2026-05-08 19:59 | 53.28672 | 9.50738 | 20171 ft | 372 kts | 189° |
| 2026-05-08 19:59 | 53.26098 | 9.50235 | 20180 ft | 372 kts | 188° |
| 2026-05-08 20:00 | 53.23526 | 9.49734 | 20180 ft | 372 kts | 189° |
| 2026-05-08 20:00 | 53.20958 | 9.49233 | 20181 ft | 372 kts | 189° |
| 2026-05-08 20:00 | 53.18379 | 9.48731 | 20181 ft | 372 kts | 189° |
| 2026-05-08 20:00 | 53.15804 | 9.48230 | 20178 ft | 372 kts | 189° |
| 2026-05-08 20:01 | 53.13224 | 9.47728 | 20299 ft | 376 kts | 188° |
| 2026-05-08 20:01 | 53.10610 | 9.47220 | 20996 ft | 379 kts | 189° |
| 2026-05-08 20:01 | 53.07991 | 9.46712 | 21811 ft | 380 kts | 189° |
| 2026-05-08 20:01 | 53.05356 | 9.46202 | 22556 ft | 383 kts | 189° |
| 2026-05-08 20:02 | 53.03598 | 9.45861 | 23029 ft | 385 kts | 189° |
| 2026-05-08 20:02 | 53.00037 | 9.45172 | 23912 ft | 391 kts | 189° |
| 2026-05-08 20:02 | 52.97327 | 9.44622 | 24465 ft | 394 kts | 189° |
| 2026-05-08 20:02 | 52.94587 | 9.44043 | 25019 ft | 398 kts | 189° |
| 2026-05-08 20:03 | 52.91834 | 9.43450 | 25538 ft | 401 kts | 189° |
| 2026-05-08 20:03 | 52.89997 | 9.43051 | 25862 ft | 402 kts | 190° |
| 2026-05-08 20:03 | 52.87234 | 9.42238 | 26350 ft | 404 kts | 193° |
| 2026-05-08 20:03 | 52.84471 | 9.41297 | 26827 ft | 406 kts | 194° |
| 2026-05-08 20:04 | 52.81694 | 9.40284 | 27250 ft | 409 kts | 195° |
| 2026-05-08 20:04 | 52.78912 | 9.39236 | 27513 ft | 412 kts | 195° |
| 2026-05-08 20:04 | 52.76108 | 9.38164 | 27945 ft | 414 kts | 195° |
| 2026-05-08 20:04 | 52.73295 | 9.37089 | 28464 ft | 413 kts | 195° |
| 2026-05-08 20:05 | 52.70496 | 9.36026 | 29049 ft | 412 kts | 195° |
| 2026-05-08 20:05 | 52.67708 | 9.34973 | 29631 ft | 410 kts | 195° |
| 2026-05-08 20:05 | 52.64925 | 9.33927 | 30217 ft | 409 kts | 195° |
| 2026-05-08 20:05 | 52.62157 | 9.32891 | 30710 ft | 407 kts | 195° |
| 2026-05-08 20:06 | 52.59431 | 9.31872 | 31221 ft | 406 kts | 195° |
| 2026-05-08 20:06 | 52.56683 | 9.30848 | 31726 ft | 404 kts | 195° |
| 2026-05-08 20:06 | 52.53934 | 9.29824 | 32250 ft | 403 kts | 195° |
| 2026-05-08 20:06 | 52.51208 | 9.28810 | 32757 ft | 402 kts | 195° |
| 2026-05-08 20:07 | 52.48484 | 9.27798 | 33124 ft | 401 kts | 195° |
| 2026-05-08 20:07 | 52.45756 | 9.26784 | 33201 ft | 403 kts | 195° |
| 2026-05-08 20:07 | 52.40285 | 9.24756 | 33147 ft | 402 kts | 195° |
| 2026-05-08 20:08 | 52.34872 | 9.22755 | 33157 ft | 401 kts | 195° |
| 2026-05-08 20:08 | 52.29415 | 9.20743 | 33157 ft | 401 kts | 195° |
| 2026-05-08 20:09 | 52.23965 | 9.18738 | 33156 ft | 401 kts | 195° |
| 2026-05-08 20:09 | 52.18509 | 9.16737 | 33157 ft | 401 kts | 195° |
| 2026-05-08 20:10 | 52.13055 | 9.14741 | 33157 ft | 401 kts | 195° |
| 2026-05-08 20:10 | 52.07606 | 9.12753 | 33157 ft | 401 kts | 195° |
| 2026-05-08 20:11 | 52.02193 | 9.10782 | 33165 ft | 401 kts | 195° |
| 2026-05-08 20:11 | 51.99456 | 9.09787 | 33436 ft | 403 kts | 195° |
| 2026-05-08 20:11 | 51.96727 | 9.08796 | 34022 ft | 400 kts | 195° |
| 2026-05-08 20:12 | 51.94023 | 9.07817 | 34539 ft | 397 kts | 195° |
| 2026-05-08 20:12 | 51.91332 | 9.06844 | 34937 ft | 395 kts | 195° |
| 2026-05-08 20:12 | 51.88641 | 9.05871 | 35151 ft | 398 kts | 195° |
| 2026-05-08 20:12 | 51.85929 | 9.04890 | 35158 ft | 400 kts | 195° |
| 2026-05-08 20:13 | 51.80486 | 9.02927 | 35157 ft | 400 kts | 195° |
| 2026-05-08 20:13 | 51.75087 | 9.00985 | 35156 ft | 400 kts | 195° |
| 2026-05-08 20:14 | 51.69651 | 8.99036 | 35149 ft | 400 kts | 195° |
| 2026-05-08 20:14 | 51.64222 | 8.97093 | 35156 ft | 399 kts | 195° |
| 2026-05-08 20:15 | 51.58785 | 8.95152 | 35219 ft | 402 kts | 195° |
| 2026-05-08 20:15 | 51.56058 | 8.94180 | 35592 ft | 401 kts | 195° |
| 2026-05-08 20:15 | 51.53336 | 8.93212 | 36003 ft | 400 kts | 195° |
| 2026-05-08 20:16 | 51.50618 | 8.92247 | 36353 ft | 399 kts | 195° |
| 2026-05-08 20:16 | 51.47894 | 8.91280 | 36651 ft | 400 kts | 195° |
| 2026-05-08 20:16 | 51.45176 | 8.90315 | 36929 ft | 401 kts | 195° |
| 2026-05-08 20:16 | 51.42484 | 8.89362 | 37128 ft | 400 kts | 195° |
| 2026-05-08 20:17 | 51.37036 | 8.87435 | 37154 ft | 403 kts | 195° |
| 2026-05-08 20:17 | 51.31562 | 8.85505 | 37154 ft | 403 kts | 195° |
| 2026-05-08 20:18 | 51.26087 | 8.83580 | 37150 ft | 403 kts | 195° |
| 2026-05-08 20:18 | 51.20608 | 8.81657 | 37146 ft | 403 kts | 195° |
| 2026-05-08 20:19 | 51.15131 | 8.79740 | 37149 ft | 403 kts | 195° |
| 2026-05-08 20:19 | 51.09655 | 8.77827 | 37151 ft | 403 kts | 195° |
| 2026-05-08 20:20 | 51.04209 | 8.75930 | 37163 ft | 403 kts | 195° |
| 2026-05-08 20:20 | 50.98728 | 8.74025 | 37150 ft | 403 kts | 195° |
| 2026-05-08 20:21 | 50.93250 | 8.72127 | 37139 ft | 403 kts | 194° |
| 2026-05-08 20:21 | 50.87771 | 8.70232 | 37148 ft | 403 kts | 194° |
| 2026-05-08 20:22 | 50.82282 | 8.68338 | 36786 ft | 405 kts | 194° |
| 2026-05-08 20:22 | 50.79528 | 8.67389 | 36286 ft | 404 kts | 194° |
| 2026-05-08 20:22 | 50.76771 | 8.66441 | 35790 ft | 403 kts | 194° |
| 2026-05-08 20:23 | 50.74053 | 8.65508 | 35307 ft | 402 kts | 194° |
| 2026-05-08 20:23 | 50.71349 | 8.64580 | 34831 ft | 402 kts | 194° |
| 2026-05-08 20:23 | 50.68620 | 8.63645 | 34340 ft | 402 kts | 194° |
| 2026-05-08 20:23 | 50.65890 | 8.62710 | 33795 ft | 401 kts | 194° |
| 2026-05-08 20:24 | 50.63157 | 8.61776 | 33213 ft | 401 kts | 194° |
| 2026-05-08 20:24 | 50.60428 | 8.60843 | 32649 ft | 402 kts | 194° |
| 2026-05-08 20:24 | 50.57692 | 8.59910 | 32091 ft | 402 kts | 193° |
| 2026-05-08 20:24 | 50.54954 | 8.58977 | 31544 ft | 402 kts | 193° |
| 2026-05-08 20:25 | 50.52221 | 8.58046 | 31014 ft | 402 kts | 193° |
| 2026-05-08 20:25 | 50.49477 | 8.57114 | 30493 ft | 403 kts | 193° |
| 2026-05-08 20:25 | 50.46731 | 8.56182 | 29928 ft | 403 kts | 193° |
| 2026-05-08 20:25 | 50.43991 | 8.55253 | 29323 ft | 403 kts | 193° |
| 2026-05-08 20:26 | 50.41246 | 8.54302 | 28733 ft | 404 kts | 195° |
| 2026-05-08 20:26 | 50.38601 | 8.52846 | 28159 ft | 403 kts | 206° |
| 2026-05-08 20:26 | 50.36207 | 8.50675 | 27584 ft | 402 kts | 216° |
| 2026-05-08 20:26 | 50.33991 | 8.48000 | 27035 ft | 400 kts | 220° |
| 2026-05-08 20:27 | 50.31872 | 8.45192 | 26477 ft | 397 kts | 221° |
| 2026-05-08 20:27 | 50.29814 | 8.42337 | 25955 ft | 394 kts | 223° |
| 2026-05-08 20:27 | 50.27786 | 8.39476 | 25437 ft | 390 kts | 223° |
| 2026-05-08 20:27 | 50.25779 | 8.36646 | 25173 ft | 387 kts | 223° |
| 2026-05-08 20:28 | 50.23777 | 8.33843 | 25120 ft | 386 kts | 222° |
| 2026-05-08 20:28 | 50.21770 | 8.31057 | 25120 ft | 385 kts | 222° |
| 2026-05-08 20:28 | 50.19759 | 8.28285 | 25120 ft | 385 kts | 222° |
| 2026-05-08 20:28 | 50.17768 | 8.25554 | 25122 ft | 386 kts | 222° |
| 2026-05-08 20:29 | 50.15744 | 8.22785 | 25119 ft | 387 kts | 222° |
| 2026-05-08 20:29 | 50.13709 | 8.20009 | 24900 ft | 387 kts | 222° |
| 2026-05-08 20:29 | 50.11685 | 8.17250 | 24650 ft | 385 kts | 221° |
| 2026-05-08 20:29 | 50.09666 | 8.14502 | 24409 ft | 384 kts | 221° |
| 2026-05-08 20:30 | 50.07650 | 8.11780 | 24170 ft | 382 kts | 220° |
| 2026-05-08 20:30 | 50.05437 | 8.09508 | 23929 ft | 382 kts | 208° |
| 2026-05-08 20:30 | 50.02949 | 8.08064 | 23692 ft | 382 kts | 194° |
| 2026-05-08 20:30 | 50.00325 | 8.07363 | 23419 ft | 382 kts | 188° |
| 2026-05-08 20:31 | 49.97688 | 8.06961 | 23136 ft | 381 kts | 185° |
| 2026-05-08 20:31 | 49.95037 | 8.06718 | 22866 ft | 380 kts | 184° |
| 2026-05-08 20:31 | 49.92430 | 8.06545 | 22595 ft | 378 kts | 184° |
| 2026-05-08 20:31 | 49.89811 | 8.06382 | 22318 ft | 376 kts | 184° |
| 2026-05-08 20:32 | 49.87229 | 8.05917 | 21546 ft | 366 kts | 192° |
| 2026-05-08 20:32 | 49.84873 | 8.04777 | 20129 ft | 354 kts | 205° |
| 2026-05-08 20:32 | 49.82758 | 8.02700 | 18768 ft | 367 kts | 222° |
| 2026-05-08 20:32 | 49.81112 | 7.99695 | 17970 ft | 361 kts | 233° |
| 2026-05-08 20:33 | 49.79575 | 7.96669 | 16912 ft | 362 kts | 231° |
| 2026-05-08 20:33 | 49.78012 | 7.93629 | 16139 ft | 356 kts | 231° |
| 2026-05-08 20:33 | 49.76499 | 7.90668 | 15588 ft | 345 kts | 231° |
| 2026-05-08 20:33 | 49.75035 | 7.87782 | 15082 ft | 338 kts | 231° |
| 2026-05-08 20:34 | 49.73593 | 7.84930 | 14575 ft | 335 kts | 231° |
| 2026-05-08 20:34 | 49.72160 | 7.82091 | 14069 ft | 333 kts | 231° |
| 2026-05-08 20:34 | 49.69335 | 7.76490 | 13006 ft | 327 kts | 232° |
| 2026-05-08 20:35 | 49.67943 | 7.73730 | 12511 ft | 324 kts | 232° |
| 2026-05-08 20:35 | 49.66560 | 7.70990 | 12020 ft | 322 kts | 232° |
| 2026-05-08 20:35 | 49.65208 | 7.68315 | 11521 ft | 319 kts | 232° |
| 2026-05-08 20:35 | 49.63849 | 7.65629 | 11032 ft | 317 kts | 231° |
| 2026-05-08 20:36 | 49.62492 | 7.62948 | 10533 ft | 315 kts | 231° |
| 2026-05-08 20:36 | 49.61153 | 7.60306 | 10208 ft | 305 kts | 231° |
| 2026-05-08 20:36 | 49.59895 | 7.57825 | 10130 ft | 284 kts | 231° |
| 2026-05-08 20:36 | 49.58691 | 7.55453 | 9971 ft | 282 kts | 231° |
| 2026-05-08 20:37 | 49.57483 | 7.53076 | 9504 ft | 280 kts | 231° |
| 2026-05-08 20:37 | 49.56284 | 7.50719 | 9097 ft | 278 kts | 231° |
| 2026-05-08 20:37 | 49.55091 | 7.48376 | 8725 ft | 277 kts | 231° |
| 2026-05-08 20:37 | 49.53901 | 7.46041 | 8332 ft | 276 kts | 231° |
| 2026-05-08 20:38 | 49.52719 | 7.43723 | 7949 ft | 275 kts | 231° |
| 2026-05-08 20:38 | 49.51539 | 7.41412 | 7558 ft | 273 kts | 231° |
| 2026-05-08 20:38 | 49.50383 | 7.39149 | 7207 ft | 271 kts | 232° |
| 2026-05-08 20:38 | 49.49221 | 7.36877 | 7101 ft | 269 kts | 232° |
| 2026-05-08 20:39 | 49.48060 | 7.34608 | 7096 ft | 269 kts | 231° |
| 2026-05-08 20:39 | 49.46900 | 7.32343 | 7090 ft | 270 kts | 231° |
| 2026-05-08 20:39 | 49.45739 | 7.30079 | 7090 ft | 269 kts | 231° |
| 2026-05-08 20:39 | 49.44561 | 7.27840 | 7089 ft | 269 kts | 227° |
| 2026-05-08 20:40 | 49.43089 | 7.26075 | 7087 ft | 269 kts | 206° |
| 2026-05-08 20:40 | 49.41280 | 7.25392 | 7065 ft | 267 kts | 182° |
| 2026-05-08 20:40 | 49.39525 | 7.26015 | 6587 ft | 268 kts | 153° |
| 2026-05-08 20:40 | 49.38136 | 7.27933 | 6024 ft | 271 kts | 124° |
| 2026-05-08 20:41 | 49.37478 | 7.30564 | 5830 ft | 259 kts | 99° |
| 2026-05-08 20:41 | 49.37757 | 7.33200 | 5682 ft | 250 kts | 65° |
| 2026-05-08 20:41 | 49.38700 | 7.35379 | 5571 ft | 241 kts | 50° |
| 2026-05-08 20:41 | 49.39897 | 7.37116 | 5488 ft | 233 kts | 40° |
| 2026-05-08 20:42 | 49.41178 | 7.38612 | 5216 ft | 232 kts | 44° |
| 2026-05-08 20:42 | 49.42046 | 7.40713 | 4706 ft | 237 kts | 68° |
| 2026-05-08 20:42 | 49.42521 | 7.43033 | 4214 ft | 211 kts | 77° |
| 2026-05-08 20:42 | 49.42790 | 7.45055 | 3865 ft | 178 kts | 81° |
| 2026-05-08 20:43 | 49.42970 | 7.46798 | 3572 ft | 161 kts | 82° |
| 2026-05-08 20:43 | 49.43189 | 7.48440 | 3249 ft | 153 kts | 81° |
| 2026-05-08 20:43 | 49.43310 | 7.50092 | 2683 ft | 158 kts | 87° |
| 2026-05-08 20:43 | 49.43333 | 7.51766 | 2171 ft | 154 kts | 87° |
| 2026-05-08 20:44 | 49.43371 | 7.53385 | 1668 ft | 145 kts | 85° |
| 2026-05-08 20:44 | 49.43440 | 7.54818 | 1246 ft | 126 kts | 84° |
| 2026-05-08 20:44 | 49.43530 | 7.56126 | 904 ft | 131 kts | 84° |
| 2026-05-08 20:44 | 49.43574 | 7.57464 | 813 ft | 123 kts | 85° |
| 2026-05-08 20:45 | 49.43625 | 7.58565 | 786 ft | 58 kts | 85° |
| 2026-05-08 20:45 | 49.43632 | 7.58726 | 787 ft | 6 kts | 86° |
| 2026-05-08 20:45 | 49.43642 | 7.58944 | 788 ft | 26 kts | 86° |
| 2026-05-08 20:45 | 49.43657 | 7.59286 | 790 ft | 36 kts | 86° |
| 2026-05-08 20:46 | 49.43670 | 7.59636 | 792 ft | 30 kts | 85° |
| 2026-05-08 20:46 | 49.43703 | 7.59852 | 793 ft | 12 kts | 25° |
| 2026-05-08 20:46 | 49.43769 | 7.59832 | 793 ft | 10 kts | 331° |
| 2026-05-08 20:46 | 49.43841 | 7.59765 | 792 ft | 14 kts | 328° |
| 2026-05-08 20:47 | 49.43929 | 7.59679 | 792 ft | 16 kts | 326° |
| 2026-05-08 20:47 | 49.44023 | 7.59613 | 792 ft | 12 kts | 358° |
| 2026-05-08 20:47 | 49.44081 | 7.59610 | 792 ft | 7 kts | 353° |
| 2026-05-08 20:47 | 49.44134 | 7.59597 | 792 ft | 8 kts | 339° |
| 2026-05-08 20:48 | 49.44145 | 7.59532 | 791 ft | 8 kts | 269° |
| 2026-05-08 20:48 | 49.44141 | 7.59426 | 791 ft | 11 kts | 248° |
| 2026-05-08 20:48 | 49.44114 | 7.59395 | 791 ft | 3 kts | 190° |
| 2026-05-08 20:48 | 49.44082 | 7.59375 | 790 ft | 6 kts | 213° |
| 2026-05-08 20:49 | 49.44069 | 7.59303 | 790 ft | 5 kts | 261° |
| 2026-05-08 20:49 | 49.44063 | 7.59290 | 790 ft | 2 kts | 226° |
| 2026-05-08 20:49 | 49.44064 | 7.59267 | 790 ft | 5 kts | 269° |
| 2026-05-08 20:49 | 49.44062 | 7.59147 | 789 ft | 12 kts | 269° |
| 2026-05-08 20:50 | 49.44061 | 7.59054 | 789 ft | 14 kts | 269° |
| 2026-05-08 20:50 | 49.44069 | 7.58943 | 788 ft | 6 kts | 319° |
| 2026-05-08 20:50 | 49.44100 | 7.58939 | 789 ft | 5 kts | 358° |
| 2026-05-08 20:50 | 49.44149 | 7.58934 | 789 ft | 9 kts | 351° |
| 2026-05-08 20:51 | 49.44188 | 7.58869 | 788 ft | 10 kts | 293° |
| 2026-05-08 20:51 | 49.44237 | 7.58813 | 788 ft | 7 kts | 350° |
| 2026-05-08 20:51 | 49.44259 | 7.58811 | 788 ft | 0 kts | 356° |